createdAt,value
2023-05-22T00:00:42.303Z,14.90
2023-05-22T00:03:10.038Z,14.73
2023-05-22T00:05:44.172Z,14.50
2023-05-22T00:08:13.541Z,14.02
2023-05-22T00:10:43.264Z,15.70
2023-05-22T00:13:15.906Z,14.95
2023-05-22T00:15:44.055Z,14.23
2023-05-22T00:18:12.182Z,14.93
2023-05-22T00:20:40.246Z,14.93
2023-05-22T00:23:09.479Z,14.93
2023-05-22T00:25:37.227Z,14.77
2023-05-22T00:28:05.040Z,14.55
2023-05-22T00:30:33.081Z,19.70
2023-05-22T00:33:01.098Z,20.80
2023-05-22T00:35:30.309Z,16.25
2023-05-22T00:38:02.664Z,15.23
2023-05-22T00:40:31.236Z,14.63
2023-05-22T00:42:59.847Z,14.82
2023-05-22T00:45:27.539Z,14.13
2023-05-22T00:47:55.313Z,14.55
2023-05-22T00:50:23.347Z,14.73
2023-05-22T00:52:51.231Z,14.40
2023-05-22T00:55:19.013Z,14.55
2023-05-22T00:57:47.917Z,15.68
2023-05-22T01:00:16.572Z,15.50
2023-05-22T01:02:49.162Z,16.00
2023-05-22T01:05:19.826Z,16.38
2023-05-22T01:08:07.803Z,16.63
2023-05-22T01:10:56.029Z,15.50
2023-05-22T01:13:23.604Z,16.40
2023-05-22T01:15:56.964Z,15.02
2023-05-22T01:18:33.873Z,15.68
2023-05-22T01:21:01.934Z,17.42
2023-05-22T01:23:29.854Z,15.77
2023-05-22T01:25:57.913Z,16.52
2023-05-22T01:28:29.513Z,17.02
2023-05-22T01:31:01.032Z,15.80
2023-05-22T01:33:33.681Z,16.95
2023-05-22T01:36:03.581Z,18.35
2023-05-22T01:38:51.524Z,17.55
2023-05-22T01:41:24.891Z,17.67
2023-05-22T01:44:04.518Z,15.32
2023-05-22T01:46:40.881Z,16.17
2023-05-22T01:49:14.810Z,16.65
2023-05-22T01:51:44.295Z,16.45
2023-05-22T01:54:12.361Z,17.15
2023-05-22T01:56:41.281Z,15.50
2023-05-22T01:59:09.198Z,15.60
2023-05-22T02:01:37.024Z,16.20
2023-05-22T02:04:05.493Z,16.83
2023-05-22T02:06:33.859Z,16.42
2023-05-22T02:09:06.046Z,16.40
2023-05-22T02:11:34.651Z,15.80
2023-05-22T02:14:02.568Z,15.82
2023-05-22T02:16:30.659Z,15.68
2023-05-22T02:18:58.759Z,15.20
2023-05-22T02:21:28.559Z,14.95
2023-05-22T02:23:56.496Z,16.38
2023-05-22T02:26:24.525Z,14.20
2023-05-22T02:28:52.303Z,15.52
2023-05-22T02:31:20.006Z,14.57
2023-05-22T02:33:48.299Z,15.68
2023-05-22T02:36:16.080Z,14.90
2023-05-22T02:38:43.981Z,15.18
2023-05-22T02:41:11.827Z,15.32
2023-05-22T02:43:41.081Z,15.02
2023-05-22T02:46:08.973Z,16.27
2023-05-22T02:48:37.193Z,15.25
2023-05-22T02:51:05.173Z,15.30
2023-05-22T02:53:33.073Z,15.10
2023-05-22T02:56:01.162Z,15.38
2023-05-22T02:58:29.382Z,15.57
2023-05-22T03:00:57.101Z,14.90
2023-05-22T03:03:25.422Z,15.02
2023-05-22T03:05:53.363Z,13.88
2023-05-22T03:08:21.086Z,14.88
2023-05-22T03:10:49.852Z,14.77
2023-05-22T03:13:17.756Z,15.27
2023-05-22T03:15:45.608Z,15.35
2023-05-22T03:18:13.532Z,15.55
2023-05-22T03:20:41.462Z,14.52
2023-05-22T03:23:09.236Z,15.95
2023-05-22T03:25:37.257Z,14.80
2023-05-22T03:28:05.356Z,15.85
2023-05-22T03:30:33.213Z,14.10
2023-05-22T03:33:01.194Z,14.57
2023-05-22T03:35:28.935Z,13.77
2023-05-22T03:37:57.008Z,14.48
2023-05-22T03:40:25.006Z,15.70
2023-05-22T03:42:52.725Z,14.55
2023-05-22T03:45:20.682Z,13.60
2023-05-22T03:47:48.794Z,15.77
2023-05-22T03:50:16.603Z,14.20
2023-05-22T03:52:44.793Z,14.38
2023-05-22T03:55:12.855Z,14.75
2023-05-22T03:57:40.631Z,14.70
2023-05-22T04:00:08.497Z,13.05
2023-05-22T04:05:17.611Z,13.98
2023-05-22T04:07:45.599Z,13.93
2023-05-22T04:10:13.471Z,12.48
2023-05-22T04:12:41.225Z,13.50
2023-05-22T04:15:09.065Z,13.40
2023-05-22T04:17:36.906Z,13.57
2023-05-22T04:20:04.834Z,13.35
2023-05-22T04:22:33.761Z,14.95
2023-05-22T04:25:01.568Z,14.75
2023-05-22T04:27:29.335Z,13.68
2023-05-22T04:29:57.748Z,14.32
2023-05-22T04:32:25.833Z,13.90
2023-05-22T04:34:53.701Z,12.73
2023-05-22T04:37:21.820Z,13.70
2023-05-22T04:39:49.815Z,12.57
2023-05-22T04:42:17.951Z,11.82
2023-05-22T04:44:46.199Z,14.32
2023-05-22T04:47:14.516Z,15.25
2023-05-22T04:49:42.356Z,16.02
2023-05-22T04:52:10.593Z,13.57
2023-05-22T04:54:38.728Z,10.55
2023-05-22T04:57:07.097Z,11.95
2023-05-22T04:59:35.178Z,12.02
2023-05-22T05:02:03.080Z,11.63
2023-05-22T05:04:31.867Z,11.73
2023-05-22T05:06:59.976Z,11.50
2023-05-22T05:09:27.900Z,11.15
2023-05-22T05:11:55.719Z,10.32
2023-05-22T05:14:26.397Z,10.75
2023-05-22T05:16:54.168Z,10.95
2023-05-22T05:19:22.130Z,10.57
2023-05-22T05:21:50.273Z,10.15
2023-05-22T05:24:18.355Z,11.80
2023-05-22T05:26:46.426Z,11.07
2023-05-22T05:29:16.545Z,10.45
2023-05-22T05:31:44.546Z,10.50
2023-05-22T05:34:13.754Z,10.65
2023-05-22T05:36:43.165Z,10.55
2023-05-22T05:39:11.652Z,10.13
2023-05-22T05:41:39.476Z,10.40
2023-05-22T05:44:08.017Z,10.82
2023-05-22T05:46:36.298Z,10.55
2023-05-22T05:49:04.479Z,10.35
2023-05-22T05:51:32.909Z,10.45
2023-05-22T05:54:00.615Z,10.07
2023-05-22T05:56:28.687Z,9.93
2023-05-22T05:58:57.027Z,9.57
2023-05-22T06:01:25.000Z,9.77
2023-05-22T06:03:52.980Z,10.23
2023-05-22T06:06:41.019Z,9.68
2023-05-22T06:09:08.804Z,8.57
2023-05-22T06:11:37.019Z,9.15
2023-05-22T06:14:05.268Z,9.85
2023-05-22T06:16:33.162Z,10.27
2023-05-22T06:19:00.905Z,9.63
2023-05-22T06:21:29.758Z,9.93
2023-05-22T06:23:57.462Z,8.73
2023-05-22T06:26:25.217Z,8.80
2023-05-22T06:28:53.309Z,8.70
2023-05-22T06:31:21.093Z,8.30
2023-05-22T06:33:49.013Z,9.32
2023-05-22T06:36:18.302Z,9.48
2023-05-22T06:38:46.074Z,8.95
2023-05-22T06:41:14.085Z,8.13
2023-05-22T06:43:41.848Z,9.07
2023-05-22T06:46:09.893Z,9.23
2023-05-22T06:48:37.848Z,9.00
2023-05-22T06:51:05.797Z,8.50
2023-05-22T06:53:33.907Z,8.90
2023-05-22T06:56:01.653Z,8.55
2023-05-22T06:58:29.448Z,9.02
2023-05-22T07:00:57.629Z,8.43
2023-05-22T07:03:25.363Z,8.98
2023-05-22T07:05:54.333Z,7.97
2023-05-22T07:08:22.120Z,8.40
2023-05-22T07:10:49.858Z,8.35
2023-05-22T07:13:19.772Z,8.15
2023-05-22T07:15:47.810Z,8.80
2023-05-22T07:18:15.590Z,8.68
2023-05-22T07:20:43.651Z,8.85
2023-05-22T07:23:11.675Z,9.05
2023-05-22T07:25:39.457Z,8.85
2023-05-22T07:28:09.673Z,8.35
2023-05-22T07:30:44.029Z,8.20
2023-05-22T07:33:13.055Z,8.45
2023-05-22T07:35:41.032Z,9.05
2023-05-22T07:38:15.819Z,8.57
2023-05-22T07:40:47.453Z,8.85
2023-05-22T07:43:15.204Z,9.32
2023-05-22T07:45:43.670Z,8.52
2023-05-22T07:51:01.144Z,8.52
2023-05-22T07:53:28.946Z,8.82
2023-05-22T07:55:56.645Z,8.57
2023-05-22T08:04:04.559Z,9.07
2023-05-22T08:06:33.853Z,9.60
2023-05-22T08:09:01.662Z,9.25
2023-05-22T08:11:33.222Z,9.20
2023-05-22T08:14:01.053Z,10.15
2023-05-22T08:16:28.974Z,9.45
2023-05-22T08:38:45.882Z,7.97
2023-05-22T08:41:14.149Z,8.52
2023-05-22T08:43:41.913Z,9.63
2023-05-22T09:00:14.686Z,10.35
2023-05-22T09:02:47.732Z,9.70
2023-05-22T09:05:15.704Z,9.15
2023-05-22T09:07:43.393Z,9.48
2023-05-22T09:10:11.176Z,8.77
2023-05-22T09:26:43.886Z,9.30
2023-05-22T09:29:11.646Z,8.30
2023-05-22T09:31:39.386Z,9.27
2023-05-22T09:45:21.125Z,8.90
2023-05-22T09:47:49.011Z,8.93
2023-05-22T09:50:16.817Z,9.57
2023-05-22T10:04:10.039Z,9.07
2023-05-22T10:06:37.735Z,9.40
2023-05-22T10:09:05.536Z,8.73
2023-05-22T10:11:34.395Z,7.55
2023-05-22T10:14:04.727Z,8.52
2023-05-22T10:16:32.749Z,8.75
2023-05-22T10:19:03.841Z,8.63
2023-05-22T10:21:31.927Z,12.65
2023-05-22T10:23:59.720Z,14.10
2023-05-22T10:26:28.828Z,10.32
2023-05-22T10:28:56.535Z,11.73
2023-05-22T10:31:24.302Z,15.60
2023-05-22T10:33:54.804Z,15.48
2023-05-22T10:36:22.649Z,10.48
2023-05-22T10:38:50.449Z,9.18
2023-05-22T10:41:21.173Z,9.18
2023-05-22T10:43:48.983Z,8.65
2023-05-22T10:46:27.168Z,8.13
2023-05-22T10:49:03.776Z,8.95
2023-05-22T10:51:32.995Z,9.18
2023-05-22T10:54:00.718Z,8.27
2023-05-22T10:56:28.466Z,9.68
2023-05-22T10:58:58.088Z,8.95
2023-05-22T11:01:25.853Z,9.65
2023-05-22T11:03:53.754Z,9.23
2023-05-22T11:06:23.302Z,9.48
2023-05-22T11:08:50.970Z,9.43
2023-05-22T11:11:18.614Z,9.15
2023-05-22T11:16:37.784Z,9.70
2023-05-22T11:19:21.272Z,8.65
2023-05-22T11:21:55.380Z,9.75
2023-05-22T11:24:23.102Z,9.98
2023-05-22T11:26:50.909Z,9.25
2023-05-22T11:29:20.853Z,9.98
2023-05-22T11:31:48.648Z,9.60
2023-05-22T11:34:16.595Z,9.70
2023-05-22T11:36:45.913Z,9.73
2023-05-22T11:39:13.605Z,9.93
2023-05-22T11:41:41.287Z,9.82
2023-05-22T11:44:09.714Z,10.20
2023-05-22T11:46:37.586Z,10.98
2023-05-22T11:49:05.278Z,10.25
2023-05-22T11:51:33.900Z,10.27
2023-05-22T11:54:01.780Z,10.18
2023-05-22T11:56:29.490Z,10.88
2023-05-22T11:59:02.546Z,11.13
2023-05-22T12:01:30.472Z,10.07
2023-05-22T12:03:58.748Z,10.70
2023-05-22T12:06:26.642Z,10.43
2023-05-22T12:08:54.508Z,10.20
2023-05-22T12:11:22.637Z,9.77
2023-05-22T12:13:52.351Z,10.70
2023-05-22T12:16:32.971Z,9.50
2023-05-22T12:19:01.181Z,9.48
2023-05-22T12:21:28.921Z,10.50
2023-05-22T12:23:57.236Z,27.27
2023-05-22T12:26:25.303Z,28.45
2023-05-22T12:28:53.539Z,12.50
2023-05-22T12:31:21.503Z,11.43
2023-05-22T12:33:49.327Z,10.20
2023-05-22T12:36:17.070Z,9.82
2023-05-22T12:38:45.156Z,10.50
2023-05-22T12:41:12.975Z,10.05
2023-05-22T12:43:40.754Z,10.40
2023-05-22T12:46:09.383Z,10.65
2023-05-22T12:48:37.256Z,9.85
2023-05-22T12:51:05.078Z,9.77
2023-05-22T12:53:33.622Z,9.48
2023-05-22T12:56:01.441Z,10.05
2023-05-22T12:58:29.179Z,11.00
2023-05-22T13:01:01.061Z,12.68
2023-05-22T13:03:28.837Z,10.27
2023-05-22T13:05:56.597Z,9.05
2023-05-22T13:08:28.997Z,8.98
2023-05-22T13:10:56.773Z,9.32
2023-05-22T13:13:24.480Z,8.68
2023-05-22T13:15:55.234Z,9.30
2023-05-22T13:18:23.509Z,9.13
2023-05-22T13:20:51.546Z,9.85
2023-05-22T13:23:20.577Z,8.88
2023-05-22T13:25:48.982Z,9.00
2023-05-22T13:28:16.737Z,8.85
2023-05-22T13:30:45.098Z,8.88
2023-05-22T13:33:12.848Z,8.20
2023-05-22T13:35:41.970Z,8.30
2023-05-22T13:38:09.977Z,8.07
2023-05-22T13:40:38.034Z,7.85
2023-05-22T13:43:05.750Z,8.13
2023-05-22T13:45:47.120Z,8.57
2023-05-22T13:48:14.885Z,8.57
2023-05-22T13:50:43.107Z,8.43
2023-05-22T13:53:15.812Z,8.38
2023-05-22T13:55:43.815Z,8.02
2023-05-22T13:58:11.536Z,8.25
2023-05-22T14:00:45.078Z,8.27
2023-05-22T14:03:13.385Z,8.13
2023-05-22T14:05:43.751Z,8.02
2023-05-22T14:08:20.963Z,7.43
2023-05-22T14:10:49.132Z,7.07
2023-05-22T14:13:16.883Z,7.07
2023-05-22T14:15:44.716Z,7.90
2023-05-22T14:18:13.805Z,7.35
2023-05-22T14:20:41.828Z,7.47
2023-05-22T14:23:09.671Z,7.43
2023-05-22T14:25:37.802Z,8.13
2023-05-22T14:28:05.700Z,7.25
2023-05-22T14:30:33.445Z,8.27
2023-05-22T14:33:02.207Z,7.90
2023-05-22T14:35:29.896Z,7.25
2023-05-22T14:37:58.869Z,7.93
2023-05-22T14:40:26.811Z,8.20
2023-05-22T14:48:18.038Z,7.72
2023-05-22T14:50:52.423Z,8.27
2023-05-22T14:53:20.050Z,7.90
2023-05-22T14:55:55.901Z,7.95
2023-05-22T14:58:23.612Z,8.00
2023-05-22T15:00:51.717Z,8.27
2023-05-22T15:03:24.354Z,8.32
2023-05-22T15:05:53.989Z,7.88
2023-05-22T15:08:38.927Z,8.20
2023-05-22T15:11:07.921Z,8.43
2023-05-22T15:13:40.511Z,8.63
2023-05-22T15:16:08.670Z,8.02
2023-05-22T15:18:36.433Z,8.60
2023-05-22T15:21:04.374Z,8.25
2023-05-22T15:23:32.772Z,7.75
2023-05-22T15:26:00.539Z,8.27
2023-05-22T15:28:28.502Z,8.48
2023-05-22T15:33:37.223Z,8.50
2023-05-22T15:36:06.340Z,8.95
2023-05-22T15:38:34.139Z,8.23
2023-05-22T15:41:01.820Z,8.52
2023-05-22T15:43:29.840Z,7.65
2023-05-22T15:45:57.633Z,8.75
2023-05-22T15:48:25.335Z,7.72
2023-05-22T15:50:53.559Z,7.95
2023-05-22T15:53:21.254Z,8.27
2023-05-22T15:55:48.968Z,8.95
2023-05-22T15:58:17.124Z,8.63
2023-05-22T16:00:44.856Z,8.25
2023-05-22T16:03:12.614Z,8.73
2023-05-22T16:05:41.472Z,9.77
2023-05-22T16:08:14.181Z,9.52
2023-05-22T16:10:42.446Z,9.23
2023-05-22T16:13:10.415Z,8.98
2023-05-22T16:15:38.570Z,9.48
2023-05-22T16:18:07.222Z,9.68
2023-05-22T16:20:35.559Z,9.45
2023-05-22T16:23:03.293Z,9.50
2023-05-22T16:25:31.531Z,9.55
2023-05-22T16:27:59.224Z,9.65
2023-05-22T16:30:26.939Z,9.95
2023-05-22T16:32:55.038Z,9.52
2023-05-22T16:35:22.747Z,10.40
2023-05-22T16:37:50.519Z,10.10
2023-05-22T16:40:20.252Z,9.93
2023-05-22T16:42:48.076Z,10.50
2023-05-22T16:45:15.832Z,10.25
2023-05-22T16:47:43.995Z,10.35
2023-05-22T16:50:11.683Z,10.23
2023-05-22T16:52:39.407Z,10.68
2023-05-22T16:55:07.473Z,10.75
2023-05-22T16:57:36.179Z,11.32
2023-05-22T17:00:04.096Z,11.23
2023-05-22T17:02:32.726Z,10.55
2023-05-22T17:05:00.532Z,10.15
2023-05-22T17:07:28.300Z,11.10
2023-05-22T17:09:56.361Z,11.13
2023-05-22T17:12:24.490Z,10.93
2023-05-22T17:14:52.207Z,11.45
2023-05-22T17:17:22.084Z,10.65
2023-05-22T17:19:49.831Z,11.13
2023-05-22T17:22:17.560Z,11.02
2023-05-22T17:24:45.470Z,10.40
2023-05-22T17:27:24.061Z,11.38
2023-05-22T17:29:59.895Z,11.98
2023-05-22T17:32:27.757Z,11.13
2023-05-22T17:34:55.630Z,11.43
2023-05-22T17:37:23.421Z,12.13
2023-05-22T17:39:51.565Z,11.07
2023-05-22T17:42:19.307Z,11.40
2023-05-22T17:44:47.330Z,11.70
2023-05-22T17:47:15.134Z,12.07
2023-05-22T17:49:42.893Z,12.43
2023-05-22T17:52:11.521Z,11.15
2023-05-22T17:54:39.226Z,11.27
2023-05-22T17:57:06.991Z,11.85
2023-05-22T17:59:35.110Z,11.55
2023-05-22T18:02:03.355Z,11.63
2023-05-22T18:04:31.702Z,11.48
2023-05-22T18:07:01.055Z,11.93
2023-05-22T18:09:29.015Z,11.73
2023-05-22T18:11:58.313Z,11.75
2023-05-22T18:14:27.626Z,11.07
2023-05-22T18:16:55.753Z,12.10
2023-05-22T18:19:23.720Z,10.95
2023-05-22T18:21:51.770Z,11.13
2023-05-22T18:24:23.116Z,11.98
2023-05-22T18:26:52.592Z,12.13
2023-05-22T18:29:20.308Z,10.88
2023-05-22T18:31:48.094Z,10.60
2023-05-22T18:34:16.772Z,11.77
2023-05-22T18:36:44.510Z,11.13
2023-05-22T18:39:12.240Z,11.27
2023-05-22T18:41:40.333Z,11.35
2023-05-22T18:44:08.091Z,10.90
2023-05-22T18:46:35.844Z,11.40
2023-05-22T18:49:05.930Z,11.10
2023-05-22T18:51:33.972Z,10.82
2023-05-22T18:54:01.793Z,11.35
2023-05-22T18:56:29.727Z,11.40
2023-05-22T18:58:57.505Z,10.63
2023-05-22T19:01:25.488Z,10.40
2023-05-22T19:03:53.499Z,11.13
2023-05-22T19:06:21.214Z,11.10
2023-05-22T19:08:53.435Z,11.02
2023-05-22T19:11:21.366Z,10.57
2023-05-22T19:13:49.088Z,10.70
2023-05-22T19:16:16.866Z,10.75
2023-05-22T19:18:44.853Z,11.80
2023-05-22T19:21:12.729Z,10.45
2023-05-22T19:23:40.445Z,10.43
2023-05-22T19:26:09.012Z,10.98
2023-05-22T19:28:36.719Z,11.45
2023-05-22T19:31:04.507Z,10.68
2023-05-22T19:33:32.681Z,10.38
2023-05-22T19:36:00.367Z,11.43
2023-05-22T19:38:28.079Z,11.15
2023-05-22T19:40:56.183Z,11.07
2023-05-22T19:43:23.979Z,10.70
2023-05-22T19:45:51.920Z,10.50
2023-05-22T19:48:19.965Z,11.00
2023-05-22T19:50:47.788Z,11.65
2023-05-22T19:53:15.509Z,11.23
2023-05-22T19:55:43.523Z,11.32
2023-05-22T19:58:11.847Z,12.10
2023-05-22T20:00:39.863Z,11.15
2023-05-22T20:03:09.517Z,11.15
2023-05-22T20:05:37.930Z,10.68
2023-05-22T20:08:05.986Z,11.45
2023-05-22T20:10:34.516Z,10.68
2023-05-22T20:13:02.246Z,11.15
2023-05-22T20:15:33.806Z,11.18
2023-05-22T20:18:02.404Z,10.85
2023-05-22T20:20:31.088Z,10.70
2023-05-22T20:22:59.458Z,10.90
2023-05-22T20:25:27.723Z,11.23
2023-05-22T20:27:55.516Z,11.55
2023-05-22T20:30:23.342Z,12.48
2023-05-22T20:32:51.496Z,11.48
2023-05-22T20:35:19.589Z,11.45
2023-05-22T20:37:47.712Z,12.05
2023-05-22T20:40:15.758Z,12.40
2023-05-22T20:42:43.758Z,13.10
2023-05-22T20:45:14.286Z,13.02
2023-05-22T20:47:43.152Z,12.57
2023-05-22T20:50:11.114Z,12.82
2023-05-22T20:52:39.092Z,12.82
2023-05-22T20:55:07.012Z,12.15
2023-05-22T20:57:34.839Z,13.30
2023-05-22T21:00:02.545Z,13.88
2023-05-22T21:02:30.413Z,14.55
2023-05-22T21:04:58.209Z,13.57
2023-05-22T21:07:26.162Z,13.20
2023-05-22T21:09:54.242Z,13.32
2023-05-22T21:12:22.185Z,13.25
2023-05-22T21:14:49.936Z,13.18
2023-05-22T21:17:18.077Z,13.25
2023-05-22T21:19:45.843Z,14.55
2023-05-22T21:22:13.528Z,16.75
2023-05-22T21:24:41.504Z,18.25
2023-05-22T21:27:09.359Z,16.27
2023-05-22T21:29:37.235Z,16.98
2023-05-22T21:32:05.300Z,14.15
2023-05-22T21:34:33.042Z,14.73
2023-05-22T21:37:00.790Z,20.60
2023-05-22T21:39:28.846Z,14.73
2023-05-22T21:41:56.813Z,13.85
2023-05-22T21:44:24.580Z,13.13
2023-05-22T21:46:52.633Z,14.27
2023-05-22T21:49:20.517Z,13.32
2023-05-22T21:51:48.303Z,14.10
2023-05-22T21:54:16.784Z,15.15
2023-05-22T21:56:44.566Z,16.25
2023-05-22T21:59:12.431Z,14.43
2023-05-22T22:01:40.518Z,14.48
2023-05-22T22:04:08.430Z,13.70
2023-05-22T22:06:36.305Z,12.57
2023-05-22T22:09:04.529Z,14.40
2023-05-22T22:11:32.210Z,14.98
2023-05-22T22:14:00.355Z,14.15
2023-05-22T22:16:28.566Z,14.02
2023-05-22T22:18:56.405Z,14.07
2023-05-22T22:21:24.229Z,13.80
2023-05-22T22:23:52.414Z,14.70
2023-05-22T22:26:20.296Z,21.63
2023-05-22T22:28:48.090Z,55.78
2023-05-22T22:31:16.189Z,60.78
2023-05-22T22:33:44.120Z,42.42
2023-05-22T22:36:11.996Z,38.30
2023-05-22T22:38:39.899Z,91.13
2023-05-22T22:41:07.637Z,79.55
2023-05-22T22:43:35.557Z,59.58
2023-05-22T22:46:03.560Z,38.35
2023-05-22T22:48:31.527Z,27.90
2023-05-22T22:50:59.358Z,23.98
2023-05-22T22:53:27.441Z,18.48
2023-05-22T22:55:55.382Z,16.67
2023-05-22T22:58:23.349Z,16.50
2023-05-22T23:00:53.347Z,15.80
2023-05-22T23:03:21.145Z,16.27
2023-05-22T23:05:48.897Z,15.15
2023-05-22T23:08:16.877Z,16.92
2023-05-22T23:10:44.731Z,17.45
2023-05-22T23:13:12.744Z,16.17
2023-05-22T23:15:41.383Z,16.20
2023-05-22T23:18:09.731Z,15.70
2023-05-22T23:20:37.708Z,16.05
2023-05-22T23:23:06.689Z,17.42
2023-05-22T23:25:34.636Z,19.02
2023-05-22T23:28:02.773Z,20.17
2023-05-22T23:30:31.371Z,24.70
2023-05-22T23:32:59.263Z,21.75
2023-05-22T23:35:27.186Z,20.35
2023-05-22T23:37:55.332Z,19.58
2023-05-22T23:40:23.685Z,20.08
2023-05-22T23:42:51.908Z,19.55
2023-05-22T23:45:20.590Z,19.30
2023-05-22T23:47:48.545Z,17.60
2023-05-22T23:50:22.074Z,18.20
2023-05-22T23:52:50.257Z,20.48
2023-05-22T23:55:18.684Z,18.00
2023-05-22T23:57:46.967Z,34.28
